Strona główna
METAR-TAF:

METAR-TAF

Lotnisko :

Port lotniczy Turkmenabat

Türkmenabat, Turkmenistan

Szerokość geograficzna: 39-05-00N, Długość geograficzna: 063-36-48E, wysokość: 192 m

Aktualna obserwacja pogody

Raport powstał 30 minut temu, godzina 22:00 UTC
Wiatr 6 kt od północny zachód
Temperatura 21°C
Wilgotność 38%
Ciśnienie 1007 hPa
Widzialność 10 km lub więcej
Brak chmur poniżej 1500 m i brak chmur cumulonimbus

METAR: UTAV 302200Z 31006KT CAVOK 21/06 Q1007 R31/CLRD70 NOSIG

czas: 03:30 (22:30 UTC)

Prognoza

Raport powstał 6 godziny i 0 minut temu, godzina 16:30 UTC
Prognoza ważna od 30 godzina 18 UTC do 31 godzina 18 UTC
Wiatr 10 kt od północno-północny wschód
Widzialność 10 km lub więcej
Brak chmur poniżej 1500 m i brak chmur cumulonimbus
Przejściowo
od 30 godzina 18 UTC do 30 godzina 24 UTC
Wiatr 4 kt z kierunków zmiennych
Widzialność: 6000 m

TAF: UTAV 301630Z 3018/3118 03010KT CAVOK TEMPO 3018/3024 VRB04KT 6000 NSC

Obserwacja i prognoza pogody dla ponad 4000 lotnisk (raport METAR i TAF).

Dostępne stacje oznaczono żółtymi i czerwonymi punktami na mapie.

Najedź kursorem aby zobaczyć nazwę stacji.

Kliknij aby zobaczyć obserwacje i prognozy pogody.

Aby zmienić mapę: kliknij na zielony przycisk z czarnym krzyżykiem, aby powiększyć; na zielony przycisk z myślnikiem, aby pomniejszyć; na zielone strzałki, aby przejść do map sąsiednich.


METAR-TAF: